Time;durP1;ratioP1;P1;durP2;ratioP2;P2;SDS_P1;SDS_P2;PMS_P1;PMS_P2;Temp;Humidity;BMP_temperature;BMP_pressure;BME280_temperature;BME280_humidity;BME280_pressure;Samples;Min_cycle;Max_cycle;Signal;HPM_P1;HPM_P2
2023/05/04 00:01:45;;;;;;;3.40;2.15;;;14.10;53.00;;;;;;5029991;28;20424;-78
2023/05/04 00:04:12;;;;;;;3.83;2.00;;;14.10;53.20;;;;;;5009338;28;20260;-76
2023/05/04 00:06:38;;;;;;;3.45;2.05;;;14.10;53.30;;;;;;5027776;28;20669;-78
2023/05/04 00:09:05;;;;;;;5.57;2.35;;;14.00;53.40;;;;;;5066836;28;20025;-78
2023/05/04 00:11:32;;;;;;;4.00;2.20;;;14.00;53.60;;;;;;5018673;28;20150;-78
2023/05/04 00:13:58;;;;;;;3.33;2.20;;;14.00;54.40;;;;;;5014459;28;20025;-78
2023/05/04 00:16:24;;;;;;;3.75;2.22;;;14.00;53.70;;;;;;5032846;28;20486;-77
2023/05/04 00:18:49;;;;;;;3.95;2.25;;;14.00;53.70;;;;;;5020804;28;20048;-78
2023/05/04 00:21:15;;;;;;;4.03;2.27;;;13.90;53.80;;;;;;5054353;28;20130;-78
2023/05/04 00:23:41;;;;;;;3.40;2.22;;;13.90;53.90;;;;;;5030736;28;20028;-78
2023/05/04 00:26:07;;;;;;;4.40;2.40;;;14.00;53.90;;;;;;5018164;28;20061;-77
2023/05/04 00:28:32;;;;;;;3.67;2.47;;;13.90;53.90;;;;;;5050513;28;20039;-78
2023/05/04 00:30:58;;;;;;;3.47;2.10;;;13.90;54.00;;;;;;5038334;28;20056;-78
2023/05/04 00:33:24;;;;;;;4.37;2.20;;;13.90;54.20;;;;;;5035359;28;20278;-78
2023/05/04 00:35:50;;;;;;;3.70;2.10;;;13.80;54.10;;;;;;5008505;28;20039;-78
2023/05/04 00:38:17;;;;;;;4.50;2.10;;;13.80;54.20;;;;;;5028428;28;20106;-77
2023/05/04 00:40:44;;;;;;;4.68;2.50;;;13.80;54.30;;;;;;5026283;28;20017;-78
2023/05/04 00:43:09;;;;;;;3.38;2.10;;;13.70;54.30;;;;;;5039380;28;20021;-77
2023/05/04 00:45:35;;;;;;;3.77;2.20;;;13.70;54.30;;;;;;5030450;28;20028;-78
2023/05/04 00:48:02;;;;;;;3.22;2.10;;;13.70;54.40;;;;;;5036442;28;20479;-78
2023/05/04 00:50:28;;;;;;;3.13;2.13;;;13.70;54.50;;;;;;5019535;28;20032;-78
2023/05/04 00:53:00;;;;;;;4.25;2.08;;;13.60;55.30;;;;;;5051518;28;20021;-78
2023/05/04 00:55:26;;;;;;;4.82;2.05;;;13.60;55.20;;;;;;5027591;28;20067;-78
2023/05/04 00:57:52;;;;;;;4.33;2.30;;;13.60;54.80;;;;;;5037982;28;20438;-78
2023/05/04 01:00:18;;;;;;;3.47;2.30;;;13.50;54.80;;;;;;5029400;28;20163;-77
2023/05/04 01:02:44;;;;;;;3.28;2.17;;;13.50;54.90;;;;;;5039245;28;20056;-78
2023/05/04 01:05:13;;;;;;;2.90;2.00;;;13.50;54.90;;;;;;5014898;28;20036;-77
2023/05/04 01:07:57;;;;;;;3.20;2.08;;;13.40;55.00;;;;;;5035538;28;20021;-78
2023/05/04 01:10:31;;;;;;;3.95;2.03;;;13.40;56.00;;;;;;5042546;28;20297;-78
2023/05/04 01:13:18;;;;;;;2.90;2.08;;;13.30;55.60;;;;;;5027022;28;20036;-78
2023/05/04 01:15:43;;;;;;;2.53;1.73;;;13.30;56.40;;;;;;5029418;28;20021;-78
2023/05/04 01:18:09;;;;;;;4.88;2.70;;;13.30;55.20;;;;;;5036716;28;20106;-78
2023/05/04 01:20:35;;;;;;;3.40;2.10;;;13.20;55.20;;;;;;5044783;28;20536;-77
2023/05/04 01:23:01;;;;;;;2.78;2.05;;;13.20;55.40;;;;;;5019017;28;20578;-78
2023/05/04 01:25:40;;;;;;;3.90;2.30;;;13.10;55.50;;;;;;5044823;28;20107;-78
2023/05/04 01:28:17;;;;;;;4.78;2.00;;;13.10;56.20;;;;;;5023545;28;20054;-78
2023/05/04 01:30:44;;;;;;;3.20;1.92;;;13.10;56.10;;;;;;5039273;28;20052;-78
2023/05/04 01:33:10;;;;;;;3.50;2.07;;;13.10;55.70;;;;;;5027658;28;20487;-78
2023/05/04 01:35:36;;;;;;;3.80;2.28;;;13.00;55.70;;;;;;5055877;28;20028;-78
2023/05/04 01:38:02;;;;;;;4.47;2.17;;;13.00;55.90;;;;;;5014389;28;20316;-78
2023/05/04 01:40:28;;;;;;;4.60;2.20;;;13.00;56.00;;;;;;5039035;28;20249;-77
2023/05/04 01:42:54;;;;;;;5.05;2.10;;;13.00;56.10;;;;;;5043231;28;20021;-78
2023/05/04 01:45:20;;;;;;;3.30;2.05;;;12.90;56.10;;;;;;5031199;28;20040;-78
2023/05/04 01:47:46;;;;;;;3.50;2.10;;;12.90;56.10;;;;;;5029924;28;20025;-78
2023/05/04 01:50:12;;;;;;;3.20;2.03;;;12.90;56.20;;;;;;5036680;28;20140;-78
2023/05/04 01:52:38;;;;;;;4.28;2.03;;;12.80;56.20;;;;;;5010127;28;20493;-77
2023/05/04 01:55:04;;;;;;;3.53;2.25;;;12.80;56.30;;;;;;5038855;28;20650;-78
2023/05/04 01:57:30;;;;;;;3.45;2.33;;;12.80;56.40;;;;;;5030145;28;20287;-78
2023/05/04 01:59:56;;;;;;;4.13;2.30;;;12.80;56.50;;;;;;5019320;28;20498;-77
2023/05/04 02:02:22;;;;;;;4.00;2.25;;;12.70;56.60;;;;;;5022418;28;20021;-78
2023/05/04 02:04:48;;;;;;;4.20;2.20;;;12.70;56.70;;;;;;5036639;28;20103;-78
2023/05/04 02:07:13;;;;;;;4.27;2.33;;;12.70;56.60;;;;;;5033769;28;20017;-78
2023/05/04 02:09:39;;;;;;;3.50;2.08;;;12.70;57.20;;;;;;5010250;28;20103;-78
2023/05/04 02:12:05;;;;;;;4.43;2.30;;;12.60;57.00;;;;;;5031778;28;20029;-78
2023/05/04 02:14:31;;;;;;;4.15;2.20;;;12.60;57.00;;;;;;5018269;28;20630;-77
2023/05/04 02:16:56;;;;;;;3.90;2.20;;;12.60;57.10;;;;;;5023344;28;20090;-78
2023/05/04 02:19:22;;;;;;;4.70;2.58;;;12.60;57.20;;;;;;5029024;28;20067;-77
2023/05/04 02:21:48;;;;;;;4.07;2.43;;;12.50;57.20;;;;;;5032477;28;20028;-77
2023/05/04 02:24:13;;;;;;;4.55;2.40;;;12.50;57.30;;;;;;5011848;28;20364;-78
2023/05/04 02:26:39;;;;;;;3.30;2.13;;;12.50;57.40;;;;;;5036004;28;20269;-77
2023/05/04 02:29:05;;;;;;;3.20;2.10;;;12.50;57.50;;;;;;5023393;28;20069;-78
2023/05/04 02:31:32;;;;;;;3.28;1.98;;;12.50;57.60;;;;;;5034987;28;20263;-78
2023/05/04 02:33:57;;;;;;;3.90;2.20;;;12.40;57.70;;;;;;5033570;28;20035;-78
2023/05/04 02:36:23;;;;;;;4.77;2.33;;;12.40;57.80;;;;;;5034804;28;20540;-77
2023/05/04 02:38:50;;;;;;;3.00;2.10;;;12.30;57.90;;;;;;5039639;28;20414;-78
2023/05/04 02:41:16;;;;;;;4.40;2.33;;;12.30;58.00;;;;;;5012932;28;20025;-78
2023/05/04 02:43:41;;;;;;;3.85;2.10;;;12.30;58.00;;;;;;5019889;28;20531;-78
2023/05/04 02:46:07;;;;;;;5.38;2.20;;;12.30;58.10;;;;;;5022126;28;20116;-78
2023/05/04 02:48:33;;;;;;;3.27;2.20;;;12.20;58.20;;;;;;5024942;28;20435;-78
2023/05/04 02:50:59;;;;;;;3.97;2.03;;;12.20;58.30;;;;;;5053267;28;20055;-78
2023/05/04 02:53:25;;;;;;;3.80;2.22;;;12.20;58.30;;;;;;5025117;28;20033;-78
2023/05/04 02:55:50;;;;;;;4.00;2.23;;;12.10;58.40;;;;;;5013291;28;20021;-78
2023/05/04 02:58:16;;;;;;;3.15;2.20;;;12.10;58.50;;;;;;5030600;28;20043;-78
2023/05/04 03:00:42;;;;;;;3.40;2.27;;;12.10;58.60;;;;;;5020776;28;20021;-78
2023/05/04 03:03:08;;;;;;;4.95;2.13;;;12.00;58.70;;;;;;5061922;28;20033;-78
2023/05/04 03:05:33;;;;;;;3.83;2.00;;;12.00;58.80;;;;;;5020394;28;20062;-78
2023/05/04 03:07:59;;;;;;;4.45;2.58;;;12.00;58.80;;;;;;5032739;28;20036;-78
2023/05/04 03:10:25;;;;;;;4.22;2.30;;;11.90;58.90;;;;;;5007522;28;20693;-77
2023/05/04 03:12:51;;;;;;;3.77;2.10;;;11.90;59.00;;;;;;5032582;28;20029;-77
2023/05/04 03:15:17;;;;;;;3.83;2.08;;;11.90;59.10;;;;;;5028428;28;20147;-78
2023/05/04 03:17:42;;;;;;;3.90;2.20;;;11.80;59.10;;;;;;5020833;28;20106;-78
2023/05/04 03:20:11;;;;;;;3.25;2.20;;;11.80;59.30;;;;;;5031247;28;20678;-78
2023/05/04 03:22:37;;;;;;;3.72;2.17;;;11.70;59.50;;;;;;5027523;28;20222;-78
2023/05/04 03:25:03;;;;;;;4.47;2.13;;;11.70;59.50;;;;;;5050117;28;20389;-78
2023/05/04 03:27:28;;;;;;;2.95;2.00;;;11.60;59.70;;;;;;5013491;28;20501;-78
2023/05/04 03:29:54;;;;;;;3.50;2.07;;;11.60;59.60;;;;;;5036679;28;20483;-78
2023/05/04 03:32:20;;;;;;;3.90;2.30;;;11.60;59.80;;;;;;5030425;28;20028;-78
2023/05/04 03:34:46;;;;;;;3.70;2.38;;;11.60;59.80;;;;;;5032816;28;20061;-78
2023/05/04 03:37:12;;;;;;;3.50;2.30;;;11.60;60.00;;;;;;5024994;28;20078;-78
2023/05/04 03:39:37;;;;;;;5.22;2.35;;;11.50;60.00;;;;;;5018180;28;20157;-78
2023/05/04 03:42:03;;;;;;;6.22;2.47;;;11.50;60.00;;;;;;5013069;28;20029;-78
2023/05/04 03:44:29;;;;;;;4.03;2.30;;;11.40;60.00;;;;;;5032860;28;20025;-77
2023/05/04 03:46:55;;;;;;;4.20;2.28;;;11.40;60.20;;;;;;5028962;28;20029;-78
2023/05/04 03:49:21;;;;;;;4.07;2.33;;;11.40;60.30;;;;;;5021319;28;20021;-78
2023/05/04 03:51:46;;;;;;;3.67;2.35;;;11.30;60.20;;;;;;5024198;28;20032;-78
2023/05/04 03:54:12;;;;;;;3.67;1.97;;;11.30;60.40;;;;;;5034935;28;20025;-78
2023/05/04 03:56:38;;;;;;;4.45;2.25;;;11.30;60.40;;;;;;5026775;28;20548;-77
2023/05/04 03:59:04;;;;;;;4.85;2.60;;;11.30;60.50;;;;;;5032353;28;20116;-78
2023/05/04 04:01:30;;;;;;;3.40;2.20;;;11.30;60.50;;;;;;5029138;28;20230;-77
2023/05/04 04:03:56;;;;;;;4.07;2.40;;;11.20;60.70;;;;;;5018973;28;20386;-77
2023/05/04 04:06:22;;;;;;;4.88;2.40;;;11.20;60.80;;;;;;5019802;28;20464;-78
2023/05/04 04:08:47;;;;;;;3.80;2.17;;;11.20;60.80;;;;;;5036431;28;20528;-77
2023/05/04 04:11:13;;;;;;;3.40;2.17;;;11.20;60.90;;;;;;5031421;28;20021;-78
2023/05/04 04:13:39;;;;;;;4.35;2.28;;;11.10;60.90;;;;;;5014057;28;20158;-77
2023/05/04 04:16:05;;;;;;;4.13;2.33;;;11.10;60.90;;;;;;5033686;28;20478;-78
2023/05/04 04:18:31;;;;;;;3.15;2.20;;;11.00;61.10;;;;;;5029371;28;20747;-77
2023/05/04 04:20:56;;;;;;;6.67;2.57;;;11.00;61.10;;;;;;5018496;28;20099;-78
2023/05/04 04:23:23;;;;;;;3.38;2.10;;;11.00;61.20;;;;;;5020681;28;20232;-78
2023/05/04 04:25:50;;;;;;;3.40;2.10;;;11.00;61.30;;;;;;5037351;28;20497;-77
2023/05/04 04:28:15;;;;;;;3.25;2.15;;;11.00;61.40;;;;;;5014600;28;20032;-78
2023/05/04 04:30:41;;;;;;;4.40;2.67;;;11.00;61.40;;;;;;5036166;28;20075;-77
2023/05/04 04:33:08;;;;;;;3.97;2.58;;;11.00;61.60;;;;;;5037232;28;20078;-78
2023/05/04 04:35:34;;;;;;;4.35;2.40;;;11.00;61.80;;;;;;5019143;28;20036;-78
2023/05/04 04:38:00;;;;;;;3.13;2.00;;;11.00;61.90;;;;;;5053230;28;20024;-78
2023/05/04 04:40:26;;;;;;;3.17;2.25;;;10.90;62.00;;;;;;5021218;28;20082;-77
2023/05/04 04:42:52;;;;;;;4.93;2.28;;;10.90;62.10;;;;;;5013050;28;20024;-77
2023/05/04 04:45:19;;;;;;;4.17;2.60;;;10.90;62.10;;;;;;5031262;28;20025;-78
2023/05/04 04:47:44;;;;;;;3.95;2.38;;;10.90;62.20;;;;;;5050513;28;20028;-77
2023/05/04 04:50:10;;;;;;;4.70;2.57;;;10.90;62.20;;;;;;5034109;28;20356;-78
2023/05/04 04:52:37;;;;;;;4.53;2.47;;;10.90;62.30;;;;;;5038085;28;20433;-77
2023/05/04 04:55:03;;;;;;;4.20;2.40;;;10.90;62.40;;;;;;5009387;28;20037;-77
2023/05/04 04:57:29;;;;;;;3.55;2.33;;;11.00;62.60;;;;;;5030145;28;20330;-77
2023/05/04 04:59:56;;;;;;;4.00;2.28;;;10.90;62.70;;;;;;5024050;28;20596;-77
2023/05/04 05:02:22;;;;;;;4.67;2.33;;;10.90;62.80;;;;;;5009317;28;20359;-77
2023/05/04 05:04:48;;;;;;;4.90;2.38;;;10.90;62.90;;;;;;5028127;28;20021;-78
2023/05/04 05:07:14;;;;;;;4.38;2.63;;;11.00;63.10;;;;;;5014191;28;20029;-78
2023/05/04 05:09:40;;;;;;;4.13;2.60;;;11.00;63.20;;;;;;5029265;28;20044;-78
2023/05/04 05:12:06;;;;;;;3.53;2.25;;;11.00;63.30;;;;;;5026702;28;20220;-78
2023/05/04 05:14:31;;;;;;;3.90;2.40;;;11.10;63.40;;;;;;5025943;28;20025;-78
2023/05/04 05:16:58;;;;;;;3.95;2.35;;;11.10;63.50;;;;;;5031933;28;20033;-77
2023/05/04 05:19:24;;;;;;;4.90;2.60;;;11.10;63.60;;;;;;5036443;28;20036;-77
2023/05/04 05:21:51;;;;;;;4.22;2.42;;;11.20;63.60;;;;;;5034087;28;20261;-78
2023/05/04 05:24:17;;;;;;;3.72;2.28;;;11.30;63.70;;;;;;5014290;28;20033;-77
2023/05/04 05:26:42;;;;;;;4.32;2.50;;;11.30;63.80;;;;;;5039597;28;20027;-78
2023/05/04 05:29:08;;;;;;;6.27;3.03;;;11.30;63.80;;;;;;5040675;28;20059;-78
2023/05/04 05:31:34;;;;;;;4.70;2.47;;;11.40;64.00;;;;;;5010165;28;20147;-78
2023/05/04 05:34:01;;;;;;;3.85;2.45;;;11.40;64.00;;;;;;5049897;28;20524;-78
2023/05/04 05:36:27;;;;;;;4.00;2.47;;;11.50;64.10;;;;;;5034928;28;20658;-77
2023/05/04 05:38:52;;;;;;;3.92;2.45;;;11.50;64.10;;;;;;5030461;28;20111;-77
2023/05/04 05:41:18;;;;;;;4.43;2.60;;;11.60;64.20;;;;;;5023571;28;20029;-78
2023/05/04 05:43:44;;;;;;;4.07;2.50;;;11.60;64.10;;;;;;5036354;28;20032;-78
2023/05/04 05:46:11;;;;;;;4.00;2.50;;;11.70;64.00;;;;;;5009779;28;20032;-77
2023/05/04 05:48:36;;;;;;;4.27;2.47;;;11.70;64.10;;;;;;5018058;28;20697;-78
2023/05/04 05:51:03;;;;;;;4.07;2.40;;;11.80;64.00;;;;;;5032954;28;20029;-78
2023/05/04 05:53:28;;;;;;;5.07;2.50;;;11.80;63.90;;;;;;5010586;28;20040;-78
2023/05/04 05:55:54;;;;;;;4.80;2.37;;;11.80;64.00;;;;;;5030932;28;20025;-78
2023/05/04 05:58:20;;;;;;;5.30;2.85;;;11.90;64.00;;;;;;5034611;28;20040;-77
2023/05/04 06:00:46;;;;;;;5.35;3.03;;;11.90;64.20;;;;;;5015739;28;20116;-78
2023/05/04 06:03:13;;;;;;;4.40;2.80;;;12.00;64.20;;;;;;5034082;28;20025;-78
2023/05/04 06:05:39;;;;;;;4.50;2.70;;;12.00;64.20;;;;;;5035934;28;20013;-77
2023/05/04 06:08:05;;;;;;;4.18;2.78;;;12.00;64.40;;;;;;5029743;28;20091;-78
2023/05/04 06:10:30;;;;;;;5.15;2.75;;;12.10;64.40;;;;;;5028427;28;20369;-78
2023/05/04 06:12:56;;;;;;;3.93;2.40;;;12.20;64.70;;;;;;5045955;28;20187;-78
2023/05/04 06:15:22;;;;;;;4.40;2.40;;;12.20;64.40;;;;;;5010684;28;20384;-77
2023/05/04 06:17:48;;;;;;;3.50;2.43;;;12.30;64.40;;;;;;5032336;28;20372;-77
2023/05/04 06:20:14;;;;;;;5.03;2.70;;;12.40;64.70;;;;;;5029284;28;20241;-79
2023/05/04 06:22:40;;;;;;;4.70;2.78;;;12.50;64.50;;;;;;5021198;28;20353;-78
2023/05/04 06:25:06;;;;;;;4.07;3.00;;;12.50;64.40;;;;;;5022398;28;20055;-77
2023/05/04 06:27:33;;;;;;;4.30;2.67;;;12.60;64.50;;;;;;5028045;28;20476;-78
2023/05/04 06:29:59;;;;;;;3.67;2.72;;;12.70;64.70;;;;;;5035868;28;20029;-77
2023/05/04 06:32:25;;;;;;;4.45;2.65;;;12.80;64.60;;;;;;5009908;28;20142;-78
2023/05/04 06:34:54;;;;;;;4.30;2.80;;;12.90;64.80;;;;;;5028782;28;20047;-78
2023/05/04 06:37:20;;;;;;;5.10;3.00;;;13.00;65.20;;;;;;5034047;28;20037;-78
2023/05/04 06:39:46;;;;;;;4.70;2.72;;;13.10;65.40;;;;;;5033926;28;20234;-77
2023/05/04 06:42:12;;;;;;;4.55;2.88;;;13.20;65.00;;;;;;5020344;28;20036;-78
2023/05/04 06:44:38;;;;;;;4.60;2.67;;;13.30;65.40;;;;;;5044827;28;20029;-78
2023/05/04 06:47:06;;;;;;;4.40;2.88;;;13.40;65.20;;;;;;5028011;28;20032;-78
2023/05/04 06:49:35;;;;;;;4.45;2.70;;;13.50;65.50;;;;;;5036073;28;20021;-77
2023/05/04 06:52:04;;;;;;;4.75;2.83;;;13.60;65.50;;;;;;5055540;28;20120;-79
2023/05/04 06:54:30;;;;;;;4.32;3.03;;;13.80;65.70;;;;;;5049323;28;20075;-77
2023/05/04 06:56:57;;;;;;;5.03;3.00;;;14.00;65.50;;;;;;5023047;28;20124;-81
2023/05/04 06:59:23;;;;;;;4.35;2.88;;;14.20;65.30;;;;;;5031143;28;20040;-78
2023/05/04 07:01:49;;;;;;;5.88;3.33;;;14.30;65.10;;;;;;5030455;28;20029;-77
2023/05/04 07:04:22;;;;;;;4.97;3.17;;;14.40;65.10;;;;;;5011185;28;20029;-79
2023/05/04 07:06:51;;;;;;;4.72;3.10;;;14.50;65.00;;;;;;5035268;28;20059;-78
2023/05/04 07:09:18;;;;;;;5.10;3.28;;;14.70;65.20;;;;;;5017807;28;20025;-79
2023/05/04 07:11:44;;;;;;;4.18;2.83;;;14.80;65.00;;;;;;5016607;28;20029;-78
2023/05/04 07:14:11;;;;;;;4.80;3.10;;;14.90;64.90;;;;;;5035687;28;20020;-78
2023/05/04 07:16:36;;;;;;;5.30;3.40;;;15.10;64.90;;;;;;5032808;28;20419;-78
2023/05/04 07:19:03;;;;;;;4.63;3.00;;;15.20;64.90;;;;;;5014231;28;20659;-78
2023/05/04 07:21:29;;;;;;;6.38;2.95;;;15.30;64.90;;;;;;5047016;28;20551;-77
2023/05/04 07:23:55;;;;;;;4.32;2.95;;;15.50;64.80;;;;;;5027855;28;20455;-79
2023/05/04 07:26:21;;;;;;;4.17;2.67;;;15.60;64.80;;;;;;5032782;28;20083;-78
2023/05/04 07:28:47;;;;;;;4.40;3.00;;;15.70;64.90;;;;;;5020677;28;20786;-77
2023/05/04 07:31:14;;;;;;;4.57;2.92;;;15.80;64.60;;;;;;5036556;28;20051;-78
2023/05/04 07:33:41;;;;;;;5.63;3.23;;;16.00;64.50;;;;;;5011584;28;20041;-77
2023/05/04 07:36:07;;;;;;;6.28;2.97;;;16.10;64.40;;;;;;5020186;28;20025;-79
2023/05/04 07:38:33;;;;;;;4.78;2.90;;;16.20;64.30;;;;;;5029211;28;20032;-78
2023/05/04 07:40:59;;;;;;;5.55;2.90;;;16.30;64.30;;;;;;5037773;28;20146;-78
2023/05/04 07:43:25;;;;;;;4.60;3.03;;;16.50;64.20;;;;;;5012321;28;20234;-78
2023/05/04 07:45:52;;;;;;;4.20;2.65;;;16.60;64.00;;;;;;5036657;28;20078;-77
2023/05/04 07:48:18;;;;;;;4.85;2.88;;;16.70;63.90;;;;;;5032350;28;20087;-78
2023/05/04 07:50:45;;;;;;;4.30;3.00;;;16.80;63.70;;;;;;5009354;28;20112;-78
2023/05/04 07:53:11;;;;;;;4.65;3.03;;;16.90;63.70;;;;;;5036604;28;20044;-78
2023/05/04 07:55:37;;;;;;;4.32;2.38;;;17.00;63.80;;;;;;5029563;28;20214;-79
2023/05/04 07:58:03;;;;;;;4.50;2.63;;;17.10;63.80;;;;;;5033828;28;20067;-78
2023/05/04 08:00:29;;;;;;;4.20;2.67;;;17.30;64.10;;;;;;5015909;28;20268;-77
2023/05/04 08:02:55;;;;;;;4.00;2.60;;;17.50;64.20;;;;;;5034019;28;20028;-78
2023/05/04 08:05:21;;;;;;;5.00;2.90;;;17.60;64.30;;;;;;5013762;28;20036;-78
2023/05/04 08:07:47;;;;;;;4.38;2.65;;;17.90;64.20;;;;;;5041021;28;20034;-77
2023/05/04 08:10:13;;;;;;;5.37;2.70;;;18.20;64.50;;;;;;5028915;28;20512;-78
2023/05/04 08:12:39;;;;;;;3.42;2.47;;;18.50;65.00;;;;;;5029549;28;20096;-78
2023/05/04 08:15:06;;;;;;;4.78;2.70;;;18.80;65.70;;;;;;5015411;28;20493;-78
2023/05/04 08:17:33;;;;;;;3.70;2.77;;;19.30;66.60;;;;;;5032108;28;20613;-77
2023/05/04 08:20:00;;;;;;;4.10;2.30;;;19.80;66.80;;;;;;5038064;28;20505;-77
2023/05/04 08:22:26;;;;;;;3.10;2.40;;;20.30;66.60;;;;;;5025865;28;20028;-80
2023/05/04 08:24:52;;;;;;;3.80;2.38;;;20.90;66.80;;;;;;5020715;28;20035;-78
2023/05/04 08:27:18;;;;;;;3.10;2.17;;;21.40;66.40;;;;;;5037412;28;20086;-78
2023/05/04 08:29:43;;;;;;;4.22;2.22;;;21.90;66.00;;;;;;4995891;28;20387;-78
2023/05/04 08:32:09;;;;;;;2.70;2.30;;;22.40;64.90;;;;;;5025775;28;20136;-79
2023/05/04 08:34:36;;;;;;;3.58;2.00;;;23.00;64.10;;;;;;5031047;28;20079;-81
2023/05/04 08:37:02;;;;;;;2.93;2.10;;;23.50;63.50;;;;;;5008663;28;20044;-80
2023/05/04 08:39:28;;;;;;;2.97;2.25;;;23.90;62.60;;;;;;5037786;28;20025;-81
2023/05/04 08:41:53;;;;;;;2.72;1.90;;;24.30;62.00;;;;;;5013997;28;20025;-78
2023/05/04 08:44:20;;;;;;;2.67;2.10;;;24.70;61.40;;;;;;5026273;28;20032;-79
2023/05/04 08:46:53;;;;;;;2.57;1.80;;;25.10;60.40;;;;;;4997292;28;20122;-78
2023/05/04 08:49:23;;;;;;;2.72;2.33;;;25.50;59.80;;;;;;5015108;28;20013;-80
2023/05/04 08:51:51;;;;;;;3.80;1.95;;;25.90;58.10;;;;;;5008500;28;20166;-79
2023/05/04 08:54:19;;;;;;;3.03;2.08;;;26.20;58.00;;;;;;5034938;28;20021;-79
2023/05/04 08:56:46;;;;;;;3.35;1.88;;;26.50;57.50;;;;;;5028346;28;20368;-79
2023/05/04 08:59:18;;;;;;;3.00;2.17;;;26.70;56.50;;;;;;5033171;28;20018;-78
2023/05/04 09:01:49;;;;;;;2.70;1.85;;;26.90;54.70;;;;;;4989731;28;20333;-80
2023/05/04 09:04:15;;;;;;;2.85;2.00;;;27.00;55.20;;;;;;5038923;28;20028;-78
2023/05/04 09:06:41;;;;;;;3.70;2.08;;;27.10;54.90;;;;;;5010930;28;20033;-79
2023/05/04 09:09:08;;;;;;;3.57;2.07;;;27.30;54.40;;;;;;5037748;28;20452;-79
2023/05/04 09:11:34;;;;;;;1.83;1.60;;;27.50;54.40;;;;;;5034744;28;20437;-79
2023/05/04 09:14:00;;;;;;;2.35;1.80;;;27.70;54.20;;;;;;5039215;28;20031;-80
2023/05/04 09:16:36;;;;;;;2.30;1.90;;;27.90;54.10;;;;;;5039968;28;20421;-80
2023/05/04 09:19:03;;;;;;;2.95;2.10;;;28.20;52.30;;;;;;5037986;28;20032;-79
2023/05/04 09:21:31;;;;;;;2.00;1.80;;;28.40;52.30;;;;;;5035956;28;20597;-80
2023/05/04 09:23:57;;;;;;;2.75;1.80;;;28.60;51.70;;;;;;5018485;28;20029;-78
2023/05/04 09:26:31;;;;;;;2.93;2.00;;;28.70;51.70;;;;;;5052039;28;20524;-81
2023/05/04 09:29:09;;;;;;;3.03;1.98;;;28.80;50.50;;;;;;5022072;28;20025;-79
2023/05/04 09:31:50;;;;;;;2.20;1.65;;;29.00;49.30;;;;;;5037188;28;20049;-80
2023/05/04 09:34:19;;;;;;;1.77;1.63;;;29.20;50.10;;;;;;5016000;28;20053;-80
2023/05/04 09:36:56;;;;;;;2.80;2.25;;;29.30;50.50;;;;;;5034008;28;20567;-78
2023/05/04 09:39:22;;;;;;;3.30;1.90;;;29.50;50.30;;;;;;5013085;28;20025;-79
2023/05/04 09:41:48;;;;;;;2.15;1.77;;;29.70;49.50;;;;;;5037728;28;20071;-80
2023/05/04 09:44:21;;;;;;;3.33;2.10;;;29.90;49.60;;;;;;5023151;28;20083;-80
2023/05/04 09:46:58;;;;;;;2.30;1.70;;;30.10;48.20;;;;;;5016028;28;20032;-79
2023/05/04 09:49:34;;;;;;;2.10;1.70;;;30.30;47.30;;;;;;5031139;28;20016;-79
2023/05/04 09:52:01;;;;;;;2.55;1.85;;;30.40;46.30;;;;;;5037313;28;20025;-79
2023/05/04 09:54:28;;;;;;;2.72;1.77;;;30.50;47.20;;;;;;5008849;28;20079;-80
2023/05/04 09:57:05;;;;;;;2.70;1.95;;;30.50;46.50;;;;;;5013942;28;20288;-79
2023/05/04 09:59:32;;;;;;;2.27;1.90;;;30.60;45.70;;;;;;5038481;28;20033;-79
2023/05/04 10:01:58;;;;;;;3.38;2.28;;;30.60;46.30;;;;;;5038478;28;20300;-78
2023/05/04 10:04:24;;;;;;;2.72;1.90;;;30.70;45.40;;;;;;5039927;28;20033;-80
2023/05/04 10:06:52;;;;;;;2.33;2.13;;;30.80;45.50;;;;;;5035445;28;20370;-78
2023/05/04 10:09:19;;;;;;;2.60;1.88;;;30.90;45.00;;;;;;5012156;28;20025;-79
2023/05/04 10:11:44;;;;;;;2.53;2.17;;;31.00;44.90;;;;;;5032009;28;20037;-81
2023/05/04 10:14:12;;;;;;;2.92;1.98;;;31.10;44.50;;;;;;5024690;28;20322;-80
2023/05/04 10:16:54;;;;;;;2.22;2.00;;;31.10;44.00;;;;;;5038395;28;20078;-80
2023/05/04 10:19:32;;;;;;;2.83;1.88;;;31.30;43.10;;;;;;5020559;28;20107;-81
2023/05/04 10:22:00;;;;;;;2.30;1.80;;;31.30;43.50;;;;;;5038523;28;20128;-82
2023/05/04 10:24:35;;;;;;;2.97;1.70;;;31.40;43.40;;;;;;5016749;28;20555;-80
2023/05/04 10:27:12;;;;;;;2.55;1.98;;;31.40;42.40;;;;;;5035154;28;20029;-81
2023/05/04 10:29:38;;;;;;;2.40;2.20;;;31.50;42.00;;;;;;5040373;28;20040;-80
2023/05/04 10:32:06;;;;;;;2.50;2.13;;;31.50;42.60;;;;;;5039522;28;20462;-79
2023/05/04 10:34:33;;;;;;;2.50;2.03;;;31.60;42.80;;;;;;5021113;28;20040;-79
2023/05/04 10:37:01;;;;;;;2.53;2.00;;;31.80;42.70;;;;;;5034089;28;20052;-80
2023/05/04 10:39:31;;;;;;;2.38;2.17;;;31.90;42.30;;;;;;5017030;28;20021;-79
2023/05/04 10:42:06;;;;;;;2.47;2.03;;;32.10;41.70;;;;;;5052545;28;20024;-82
2023/05/04 10:44:34;;;;;;;2.50;1.90;;;32.30;41.30;;;;;;5038231;28;20078;-79
2023/05/04 10:47:02;;;;;;;2.43;1.80;;;32.30;41.10;;;;;;5037104;28;20020;-80
2023/05/04 10:49:28;;;;;;;2.67;1.98;;;32.50;41.30;;;;;;5031988;28;20147;-79
2023/05/04 10:52:09;;;;;;;3.28;2.00;;;32.60;41.40;;;;;;5025687;28;20033;-80
2023/05/04 10:54:39;;;;;;;2.75;2.22;;;32.80;39.60;;;;;;5016647;28;20020;-80
2023/05/04 10:57:08;;;;;;;2.20;2.00;;;33.00;40.30;;;;;;5035699;28;20064;-79
2023/05/04 10:59:34;;;;;;;1.93;1.80;;;33.00;40.60;;;;;;5036678;28;20381;-80
2023/05/04 11:02:01;;;;;;;2.35;2.13;;;33.20;40.70;;;;;;5055155;28;20044;-82
2023/05/04 11:04:27;;;;;;;3.45;2.30;;;33.30;39.90;;;;;;5014919;28;20245;-83
2023/05/04 11:07:05;;;;;;;2.47;2.10;;;33.50;39.40;;;;;;5027402;28;20612;-80
2023/05/04 11:09:43;;;;;;;2.30;2.10;;;33.50;37.50;;;;;;5053719;28;20152;-82
2023/05/04 11:12:09;;;;;;;3.00;2.20;;;33.50;37.80;;;;;;5015001;28;20036;-81
2023/05/04 11:14:41;;;;;;;3.00;2.20;;;33.50;38.50;;;;;;5037608;28;20431;-79
2023/05/04 11:17:11;;;;;;;2.38;2.03;;;33.50;38.60;;;;;;5033135;28;20103;-82
2023/05/04 11:19:50;;;;;;;3.33;2.10;;;33.60;38.30;;;;;;5037432;28;20425;-81
2023/05/04 11:22:19;;;;;;;2.50;2.10;;;33.70;38.00;;;;;;5003064;28;20210;-80
2023/05/04 11:24:47;;;;;;;2.37;2.10;;;33.80;38.40;;;;;;5049835;28;20375;-81
2023/05/04 11:27:28;;;;;;;2.45;1.98;;;33.90;37.80;;;;;;5020681;28;20272;-80
2023/05/04 11:30:03;;;;;;;2.45;2.20;;;33.90;36.80;;;;;;5034231;28;20044;-81
2023/05/04 11:32:46;;;;;;;2.25;1.88;;;33.90;37.30;;;;;;5038760;28;20608;-80
2023/05/04 11:35:23;;;;;;;2.50;2.28;;;33.90;36.30;;;;;;5033658;28;20120;-82
2023/05/04 11:37:49;;;;;;;3.20;2.10;;;33.90;36.30;;;;;;5034083;28;20025;-80
2023/05/04 11:40:20;;;;;;;2.47;2.17;;;33.90;36.90;;;;;;5015600;28;20264;-82
2023/05/04 11:42:48;;;;;;;4.30;2.08;;;33.90;36.70;;;;;;5038518;28;20038;-80
2023/05/04 11:45:22;;;;;;;2.80;2.15;;;34.00;37.50;;;;;;5035169;28;20225;-83
2023/05/04 11:47:49;;;;;;;3.47;2.50;;;34.00;36.20;;;;;;5036895;28;20044;-81
2023/05/04 11:50:17;;;;;;;2.47;2.28;;;33.90;35.80;;;;;;5040139;28;20604;-82
2023/05/04 11:52:43;;;;;;;3.45;2.40;;;33.80;35.40;;;;;;5010638;28;20493;-81
2023/05/04 11:55:10;;;;;;;2.30;2.10;;;33.70;35.10;;;;;;5033869;28;20032;-80
2023/05/04 11:57:36;;;;;;;3.33;1.90;;;33.70;35.70;;;;;;4997936;28;20033;-80
2023/05/04 12:00:07;;;;;;;2.40;2.20;;;33.70;36.30;;;;;;5021755;28;20112;-81
2023/05/04 12:02:34;;;;;;;2.20;2.00;;;33.80;35.70;;;;;;5033518;28;20032;-80
2023/05/04 12:05:00;;;;;;;3.08;2.50;;;33.90;36.10;;;;;;5032388;28;20029;-81
2023/05/04 12:07:27;;;;;;;2.42;2.05;;;34.00;36.00;;;;;;5039633;28;20021;-80
2023/05/04 12:09:53;;;;;;;2.80;2.40;;;34.00;35.80;;;;;;5003625;28;20056;-83
2023/05/04 12:12:20;;;;;;;3.50;2.07;;;34.00;35.70;;;;;;4994256;28;20037;-81
2023/05/04 12:14:57;;;;;;;2.92;2.60;;;34.00;35.40;;;;;;5037640;28;20021;-80
2023/05/04 12:17:23;;;;;;;3.38;2.22;;;33.90;35.20;;;;;;5025230;28;20065;-79
2023/05/04 12:19:51;;;;;;;2.95;2.17;;;33.90;35.50;;;;;;5052173;28;20724;-81
2023/05/04 12:22:17;;;;;;;2.53;2.10;;;33.90;35.50;;;;;;5037446;28;20103;-83
2023/05/04 12:24:43;;;;;;;2.47;2.00;;;33.90;35.20;;;;;;5020703;28;20067;-83
2023/05/04 12:27:13;;;;;;;3.55;2.08;;;33.90;35.30;;;;;;5037596;28;20028;-82
2023/05/04 12:29:40;;;;;;;2.67;2.03;;;34.00;34.70;;;;;;5018328;28;20029;-83
2023/05/04 12:32:06;;;;;;;3.17;2.20;;;34.00;35.90;;;;;;5038040;28;20243;-79
2023/05/04 12:34:32;;;;;;;2.67;2.20;;;34.10;35.20;;;;;;5040208;28;20362;-82
2023/05/04 12:36:58;;;;;;;3.90;2.00;;;34.20;35.00;;;;;;5031521;28;20017;-81
2023/05/04 12:39:24;;;;;;;3.15;2.40;;;34.20;34.90;;;;;;5026739;28;20159;-82
2023/05/04 12:41:50;;;;;;;3.25;1.95;;;34.20;34.90;;;;;;5017280;28;20025;-82
2023/05/04 12:44:16;;;;;;;2.20;2.00;;;34.20;35.20;;;;;;5015235;28;20021;-81
2023/05/04 12:46:44;;;;;;;2.55;2.35;;;34.30;35.70;;;;;;5039345;28;20069;-81
2023/05/04 12:49:13;;;;;;;3.10;2.10;;;34.40;35.20;;;;;;5034155;28;20760;-80